ADDS TAF Board (Experimental) INFO Settings
IDs: Format: Expanded Condensed

KMSP - Minneapolis-St Paul, MN, US

Issued at 0520 UTC 02 Aug 2015
Updated at: 0618 UTC 02 Aug 2015
Time0553Z 02/07Z 02/08Z 02/09Z 02/10Z 02/11Z 02/12Z 02/13Z 02/14Z 02/15Z 02/16Z 02/17Z 02/18Z 02/19Z
Type OBS PRVL PRVL PRVL PRVL PRVL PRVL PRVL PRVL PRVL PRVL PRVL PRVL PRVL
VIS 10 >6 >6 >6 >6 >6 >6 >6 >6 >6 >6 >6 >6 >6
CIG -- -- -- -- -- -- -- -- -- -- -- -- -- --
Cover FEW FEW FEW FEW FEW FEW FEW FEW SKC SKC SKC SCT SCT SCT
FltCat VFR VFR VFR VFR VFR VFR VFR VFR VFR VFR VFR VFR VFR VFR
WX -- -- -- -- -- -- -- -- -- -- -- -- -- --
WDir 230 230 230 230 230 230 230 230 280 280 280 310 310 310
WSpd 13 8 8 8 8 8 8 8 9 9 9 15 15 15
WGst 20 -- -- -- -- -- -- -- -- -- -- 24 24 24
R04/22
XWnd 1 1 1 1 1 1 1 1 7 7 7 15 15 15
XGst 2 -- -- -- -- -- -- -- -- -- -- 24 24 24
HWnd -13 -8 -8 -8 -8 -8 -8 -8 -5 -5 -5 -1 -1 -1
HGst -20 -- -- -- -- -- -- -- -- -- -- -2 -2 -2
R12/30
XWnd -12 -8 -8 -8 -8 -8 -8 -8 -3 -3 -3 2 2 2
XGst -19 -- -- -- -- -- -- -- -- -- -- 4 4 4
HWnd -4 -3 -3 -3 -3 -3 -3 -3 -8 -8 -8 -15 -15 -15
HGst -7 -- -- -- -- -- -- -- -- -- -- -24 -24 -24
R17/35
XWnd -11 -7 -7 -7 -7 -7 -7 -7 -8 -8 -8 -10 -10 -10
XGst -17 -- -- -- -- -- -- -- -- -- -- -15 -15 -15
HWnd 7 4 4 4 4 4 4 4 -3 -3 -3 -11 -11 -11
HGst 10 -- -- -- -- -- -- -- -- -- -- -18 -18 -18

NOTE: TEMPO conditions in [brackets]. Keep in mind TEMPO conditions might be better (lower impact) than prevailing conditions.

Raw TAF
KMSP 020520Z 0206/0312 23008KT P6SM FEW120
  FM021400 28009KT P6SM SKC
  FM021700 31015G24KT P6SM SCT060
  FM030200 31009KT P6SM SKC


Raw METAR
KMSP 020553Z 23013G20KT 10SM FEW120 24/18 A2975 RMK AO2 LTG DSNT E RAB38E47 SLP068 FRQ LTGIC DSNT E P0000 60000 T02440183 10294 20244 403000189 58008
KMSP 020453Z 23010KT 10SM SCT160 26/19 A2977 RMK AO2 SLP075 OCNL LTGIC DSNT E T02560189
KMSP 020353Z 22010KT 10SM FEW120 BKN160 26/19 A2977 RMK AO2 SLP074 T02610194

METAR Board
Radar Display
Forecast Discussion

TAF Board Legend

Potential Impact
Threat None Slight Moderate High
Visibility (sm) ≥5.1 5.1>X≥3 3>X≥1 <1
Ceiling (100 ft) ≥30.1 30.1>X≥10 10>X≥5 <5
Wind Speed (kt) <10 10≤X<20 20≤X<30 ≥30
Wind Gust (kt) <15 15≤X<25 25≤X<35 ≥35
Weather No Wx Reported VCTS,-TS,-FZRA,SN TS,FZRA +TS,+FZRA,+SN